sensor_id;sensor_type;location;lat;lon;timestamp;pressure;altitude;pressure_sealevel;temperature;humidity
32789;BME280;19141;48.980;8.410;2022-11-15T05:22:37;99771.31;;;7.96;100.00
32789;BME280;19141;48.980;8.410;2022-11-15T05:25:22;99767.84;;;7.96;100.00
32789;BME280;19141;48.980;8.410;2022-11-15T05:28:06;99777.44;;;7.97;100.00
32789;BME280;19141;48.980;8.410;2022-11-15T05:30:50;99773.63;;;7.99;100.00
32789;BME280;19141;48.980;8.410;2022-11-15T05:33:35;99777.91;;;8.00;100.00
32789;BME280;19141;48.980;8.410;2022-11-15T05:36:38;99764.00;;;7.98;100.00
32789;BME280;19141;48.980;8.410;2022-11-15T05:39:24;99758.06;;;7.96;100.00
32789;BME280;19141;48.980;8.410;2022-11-15T05:42:11;99767.84;;;7.96;100.00
32789;BME280;19141;48.980;8.410;2022-11-15T05:44:56;99774.78;;;7.97;100.00
32789;BME280;19141;48.980;8.410;2022-11-15T05:47:41;99761.84;;;7.94;100.00
32789;BME280;19141;48.980;8.410;2022-11-15T05:50:26;99756.06;;;7.90;100.00
32789;BME280;19141;48.980;8.410;2022-11-15T05:53:12;99758.72;;;7.90;100.00
32789;BME280;19141;48.980;8.410;2022-11-15T05:55:58;99767.16;;;7.85;100.00
32789;BME280;19141;48.980;8.410;2022-11-15T05:58:42;99768.84;;;7.78;100.00
32789;BME280;19141;48.980;8.410;2022-11-15T06:01:26;99772.16;;;7.64;100.00
32789;BME280;19141;48.980;8.410;2022-11-15T06:04:11;99767.16;;;7.69;100.00
32789;BME280;19141;48.980;8.410;2022-11-15T06:06:55;99777.13;;;7.67;100.00
32789;BME280;19141;48.980;8.410;2022-11-15T06:09:39;99765.38;;;7.70;100.00
32789;BME280;19141;48.980;8.410;2022-11-15T06:12:22;99763.53;;;7.62;100.00
32789;BME280;19141;48.980;8.410;2022-11-15T06:15:07;99755.91;;;7.67;100.00
32789;BME280;19141;48.980;8.410;2022-11-15T06:17:51;99756.25;;;7.64;100.00
32789;BME280;19141;48.980;8.410;2022-11-15T06:20:35;99745.78;;;7.62;100.00
32789;BME280;19141;48.980;8.410;2022-11-15T06:23:19;99756.41;;;7.62;100.00
32789;BME280;19141;48.980;8.410;2022-11-15T06:26:03;99755.59;;;7.70;100.00
32789;BME280;19141;48.980;8.410;2022-11-15T06:28:47;99745.13;;;7.69;100.00
32789;BME280;19141;48.980;8.410;2022-11-15T06:31:33;99749.47;;;7.70;100.00
32789;BME280;19141;48.980;8.410;2022-11-15T06:34:17;99741.66;;;7.68;100.00
32789;BME280;19141;48.980;8.410;2022-11-15T06:37:01;99742.16;;;7.72;100.00
32789;BME280;19141;48.980;8.410;2022-11-15T06:39:46;99720.31;;;7.70;100.00
32789;BME280;19141;48.980;8.410;2022-11-15T06:42:30;99721.44;;;7.67;100.00
32789;BME280;19141;48.980;8.410;2022-11-15T06:45:13;99731.06;;;7.76;100.00
32789;BME280;19141;48.980;8.410;2022-11-15T06:47:58;99736.84;;;7.80;100.00
32789;BME280;19141;48.980;8.410;2022-11-15T06:50:42;99751.09;;;7.87;100.00
32789;BME280;19141;48.980;8.410;2022-11-15T06:53:26;99750.94;;;7.80;100.00
32789;BME280;19141;48.980;8.410;2022-11-15T06:56:10;99754.91;;;7.84;100.00
32789;BME280;19141;48.980;8.410;2022-11-15T06:58:55;99752.72;;;7.88;100.00
32789;BME280;19141;48.980;8.410;2022-11-15T07:01:39;99747.28;;;7.89;100.00
32789;BME280;19141;48.980;8.410;2022-11-15T07:04:23;99763.66;;;7.93;100.00
32789;BME280;19141;48.980;8.410;2022-11-15T07:07:06;99760.53;;;7.98;100.00
32789;BME280;19141;48.980;8.410;2022-11-15T07:09:50;99760.03;;;8.02;100.00
32789;BME280;19141;48.980;8.410;2022-11-15T07:12:34;99771.44;;;8.11;100.00
32789;BME280;19141;48.980;8.410;2022-11-15T07:15:20;99759.84;;;8.04;100.00
32789;BME280;19141;48.980;8.410;2022-11-15T07:18:05;99767.63;;;8.05;100.00
32789;BME280;19141;48.980;8.410;2022-11-15T07:20:49;99775.94;;;8.10;100.00
32789;BME280;19141;48.980;8.410;2022-11-15T07:23:33;99769.13;;;8.16;100.00
32789;BME280;19141;48.980;8.410;2022-11-15T07:26:16;99772.44;;;8.18;100.00
32789;BME280;19141;48.980;8.410;2022-11-15T07:29:00;99767.44;;;8.23;100.00
32789;BME280;19141;48.980;8.410;2022-11-15T07:31:44;99776.06;;;8.25;100.00
32789;BME280;19141;48.980;8.410;2022-11-15T07:34:28;99763.44;;;8.27;100.00
32789;BME280;19141;48.980;8.410;2022-11-15T07:37:12;99765.75;;;8.30;100.00
32789;BME280;19141;48.980;8.410;2022-11-15T07:39:56;99770.06;;;8.31;100.00
32789;BME280;19141;48.980;8.410;2022-11-15T07:42:40;99767.59;;;8.38;100.00
32789;BME280;19141;48.980;8.410;2022-11-15T07:45:43;99767.91;;;8.43;100.00
32789;BME280;19141;48.980;8.410;2022-11-15T07:48:27;99763.63;;;8.42;100.00
32789;BME280;19141;48.980;8.410;2022-11-15T07:51:12;99766.41;;;8.49;100.00
32789;BME280;19141;48.980;8.410;2022-11-15T07:53:57;99758.25;;;8.50;100.00
32789;BME280;19141;48.980;8.410;2022-11-15T07:56:41;99756.94;;;8.54;100.00
32789;BME280;19141;48.980;8.410;2022-11-15T07:59:25;99753.75;;;8.59;100.00
32789;BME280;19141;48.980;8.410;2022-11-15T08:02:09;99762.66;;;8.66;100.00
32789;BME280;19141;48.980;8.410;2022-11-15T08:04:53;99755.03;;;8.71;100.00
32789;BME280;19141;48.980;8.410;2022-11-15T08:07:37;99757.47;;;8.81;100.00
32789;BME280;19141;48.980;8.410;2022-11-15T08:10:22;99763.56;;;8.89;100.00
32789;BME280;19141;48.980;8.410;2022-11-15T08:13:08;99759.84;;;8.98;100.00
32789;BME280;19141;48.980;8.410;2022-11-15T08:16:00;99762.13;;;9.10;100.00
32789;BME280;19141;48.980;8.410;2022-11-15T08:18:44;99760.09;;;9.20;100.00
32789;BME280;19141;48.980;8.410;2022-11-15T08:21:28;99760.66;;;9.30;100.00
32789;BME280;19141;48.980;8.410;2022-11-15T08:24:12;99758.44;;;9.42;100.00
32789;BME280;19141;48.980;8.410;2022-11-15T08:26:56;99751.88;;;9.52;100.00
32789;BME280;19141;48.980;8.410;2022-11-15T08:29:45;99749.47;;;9.58;100.00
32789;BME280;19141;48.980;8.410;2022-11-15T08:32:30;99744.94;;;9.66;100.00
32789;BME280;19141;48.980;8.410;2022-11-15T08:35:15;99744.69;;;9.76;100.00
32789;BME280;19141;48.980;8.410;2022-11-15T08:37:59;99741.50;;;9.81;100.00
32789;BME280;19141;48.980;8.410;2022-11-15T08:40:43;99736.91;;;9.89;100.00
32789;BME280;19141;48.980;8.410;2022-11-15T08:43:27;99734.91;;;9.91;100.00
32789;BME280;19141;48.980;8.410;2022-11-15T08:46:12;99735.28;;;10.03;100.00
32789;BME280;19141;48.980;8.410;2022-11-15T08:48:56;99744.19;;;10.10;100.00
32789;BME280;19141;48.980;8.410;2022-11-15T08:51:40;99732.66;;;10.18;100.00
32789;BME280;19141;48.980;8.410;2022-11-15T08:54:24;99727.69;;;10.29;100.00
32789;BME280;19141;48.980;8.410;2022-11-15T08:57:08;99719.72;;;10.29;100.00
32789;BME280;19141;48.980;8.410;2022-11-15T08:59:53;99722.75;;;10.41;100.00
32789;BME280;19141;48.980;8.410;2022-11-15T09:02:38;99728.34;;;10.46;100.00
32789;BME280;19141;48.980;8.410;2022-11-15T09:05:22;99727.97;;;10.49;100.00
32789;BME280;19141;48.980;8.410;2022-11-15T09:08:06;99726.78;;;10.52;100.00
32789;BME280;19141;48.980;8.410;2022-11-15T09:10:51;99724.56;;;10.55;100.00
32789;BME280;19141;48.980;8.410;2022-11-15T09:13:36;99721.16;;;10.62;100.00
32789;BME280;19141;48.980;8.410;2022-11-15T09:16:23;99718.75;;;10.67;100.00
32789;BME280;19141;48.980;8.410;2022-11-15T09:19:07;99716.72;;;10.69;100.00
32789;BME280;19141;48.980;8.410;2022-11-15T09:21:51;99708.38;;;10.72;100.00
32789;BME280;19141;48.980;8.410;2022-11-15T09:24:35;99713.22;;;10.83;100.00
32789;BME280;19141;48.980;8.410;2022-11-15T09:27:19;99720.00;;;10.85;100.00
32789;BME280;19141;48.980;8.410;2022-11-15T09:30:04;99724.94;;;10.88;100.00
32789;BME280;19141;48.980;8.410;2022-11-15T09:32:48;99716.13;;;10.88;100.00
32789;BME280;19141;48.980;8.410;2022-11-15T09:35:32;99702.38;;;10.84;100.00
32789;BME280;19141;48.980;8.410;2022-11-15T09:38:16;99714.75;;;10.92;100.00
32789;BME280;19141;48.980;8.410;2022-11-15T09:41:25;99708.16;;;10.88;100.00
32789;BME280;19141;48.980;8.410;2022-11-15T09:50:46;99712.50;;;11.10;100.00
32789;BME280;19141;48.980;8.410;2022-11-15T09:53:21;99705.31;;;11.11;100.00
32789;BME280;19141;48.980;8.410;2022-11-15T09:55:55;99706.97;;;11.12;100.00
32789;BME280;19141;48.980;8.410;2022-11-15T09:58:35;99706.22;;;11.18;100.00
32789;BME280;19141;48.980;8.410;2022-11-15T10:01:06;99702.72;;;11.18;100.00
32789;BME280;19141;48.980;8.410;2022-11-15T10:03:38;99699.44;;;11.16;100.00
32789;BME280;19141;48.980;8.410;2022-11-15T10:06:10;99703.56;;;11.18;100.00
32789;BME280;19141;48.980;8.410;2022-11-15T10:09:05;99703.00;;;11.23;100.00
32789;BME280;19141;48.980;8.410;2022-11-15T10:11:35;99702.16;;;11.22;100.00
32789;BME280;19141;48.980;8.410;2022-11-15T10:14:08;99713.25;;;11.26;100.00
32789;BME280;19141;48.980;8.410;2022-11-15T10:22:16;99708.38;;;11.29;100.00
32789;BME280;19141;48.980;8.410;2022-11-15T10:24:45;99710.03;;;11.30;100.00
32789;BME280;19141;48.980;8.410;2022-11-15T10:27:16;99709.63;;;11.33;100.00
32789;BME280;19141;48.980;8.410;2022-11-15T10:29:47;99710.47;;;11.34;100.00
32789;BME280;19141;48.980;8.410;2022-11-15T10:32:14;99705.13;;;11.34;100.00
32789;BME280;19141;48.980;8.410;2022-11-15T10:34:40;99701.84;;;11.32;100.00
32789;BME280;19141;48.980;8.410;2022-11-15T10:37:05;99692.81;;;11.33;100.00
32789;BME280;19141;48.980;8.410;2022-11-15T10:39:31;99695.47;;;11.33;100.00
32789;BME280;19141;48.980;8.410;2022-11-15T10:42:15;99685.56;;;11.27;100.00
32789;BME280;19141;48.980;8.410;2022-11-15T10:44:43;99690.59;;;11.36;100.00
32789;BME280;19141;48.980;8.410;2022-11-15T10:47:30;99690.81;;;11.35;100.00
32789;BME280;19141;48.980;8.410;2022-11-15T10:50:29;99682.81;;;11.35;100.00
32789;BME280;19141;48.980;8.410;2022-11-15T10:52:55;99672.56;;;11.38;100.00
32789;BME280;19141;48.980;8.410;2022-11-15T10:55:24;99665.00;;;11.42;100.00
32789;BME280;19141;48.980;8.410;2022-11-15T10:57:56;99663.41;;;11.48;100.00
32789;BME280;19141;48.980;8.410;2022-11-15T11:00:30;99651.13;;;11.53;100.00
32789;BME280;19141;48.980;8.410;2022-11-15T11:03:03;99649.97;;;11.62;100.00
32789;BME280;19141;48.980;8.410;2022-11-15T11:05:37;99646.13;;;11.72;100.00
32789;BME280;19141;48.980;8.410;2022-11-15T11:08:05;99640.28;;;11.83;100.00
32789;BME280;19141;48.980;8.410;2022-11-15T11:10:31;99631.09;;;11.92;100.00
32789;BME280;19141;48.980;8.410;2022-11-15T11:13:35;99626.44;;;12.01;100.00
32789;BME280;19141;48.980;8.410;2022-11-15T11:16:11;99626.25;;;12.02;100.00
32789;BME280;19141;48.980;8.410;2022-11-15T11:18:52;99616.19;;;12.04;100.00
32789;BME280;19141;48.980;8.410;2022-11-15T11:21:41;99607.16;;;12.05;100.00
32789;BME280;19141;48.980;8.410;2022-11-15T11:24:29;99611.50;;;12.06;100.00
32789;BME280;19141;48.980;8.410;2022-11-15T11:27:11;99599.59;;;12.09;100.00
32789;BME280;19141;48.980;8.410;2022-11-15T11:32:30;99591.16;;;12.12;100.00
32789;BME280;19141;48.980;8.410;2022-11-15T11:35:17;99580.09;;;12.15;100.00
32789;BME280;19141;48.980;8.410;2022-11-15T11:38:04;99571.88;;;12.16;100.00
32789;BME280;19141;48.980;8.410;2022-11-15T11:40:33;99557.75;;;12.22;100.00
32789;BME280;19141;48.980;8.410;2022-11-15T11:43:09;99562.06;;;12.30;100.00
32789;BME280;19141;48.980;8.410;2022-11-15T11:50:52;99551.00;;;12.33;100.00
32789;BME280;19141;48.980;8.410;2022-11-15T11:53:29;99553.47;;;12.35;100.00
32789;BME280;19141;48.980;8.410;2022-11-15T11:56:01;99551.81;;;12.34;100.00
32789;BME280;19141;48.980;8.410;2022-11-15T11:58:36;99546.47;;;12.27;100.00
32789;BME280;19141;48.980;8.410;2022-11-15T12:01:08;99550.97;;;12.27;100.00
32789;BME280;19141;48.980;8.410;2022-11-15T12:03:51;99543.78;;;12.27;100.00
32789;BME280;19141;48.980;8.410;2022-11-15T12:06:36;99541.53;;;12.31;100.00
32789;BME280;19141;48.980;8.410;2022-11-15T12:09:24;99534.56;;;12.36;100.00
32789;BME280;19141;48.980;8.410;2022-11-15T12:12:13;99537.84;;;12.38;100.00
32789;BME280;19141;48.980;8.410;2022-11-15T12:15:09;99536.03;;;12.39;100.00
32789;BME280;19141;48.980;8.410;2022-11-15T12:17:39;99524.50;;;12.38;100.00
32789;BME280;19141;48.980;8.410;2022-11-15T12:20:21;99533.53;;;12.44;100.00
32789;BME280;19141;48.980;8.410;2022-11-15T12:23:01;99524.72;;;12.43;100.00
32789;BME280;19141;48.980;8.410;2022-11-15T12:25:53;99512.41;;;12.49;100.00
32789;BME280;19141;48.980;8.410;2022-11-15T12:28:47;99511.38;;;12.63;100.00
32789;BME280;19141;48.980;8.410;2022-11-15T12:31:35;99504.19;;;12.70;100.00
32789;BME280;19141;48.980;8.410;2022-11-15T12:34:29;99494.75;;;12.88;100.00
32789;BME280;19141;48.980;8.410;2022-11-15T12:36:59;99495.56;;;13.08;100.00
32789;BME280;19141;48.980;8.410;2022-11-15T12:42:40;99482.13;;;13.48;100.00
32789;BME280;19141;48.980;8.410;2022-11-15T12:45:26;99479.38;;;13.68;100.00
32789;BME280;19141;48.980;8.410;2022-11-15T12:47:52;99479.94;;;13.90;100.00
32789;BME280;19141;48.980;8.410;2022-11-15T12:56:09;99468.84;;;14.18;100.00
32789;BME280;19141;48.980;8.410;2022-11-15T13:01:07;99462.19;;;14.27;100.00
32789;BME280;19141;48.980;8.410;2022-11-15T13:03:33;99454.09;;;14.33;100.00
32789;BME280;19141;48.980;8.410;2022-11-15T13:06:02;99454.50;;;14.37;99.73
32789;BME280;19141;48.980;8.410;2022-11-15T13:08:45;99440.66;;;14.47;99.46
32789;BME280;19141;48.980;8.410;2022-11-15T13:11:47;99435.91;;;14.49;97.61
32789;BME280;19141;48.980;8.410;2022-11-15T13:19:42;99423.06;;;14.26;98.16
32789;BME280;19141;48.980;8.410;2022-11-15T13:22:11;99416.72;;;14.45;97.41
32789;BME280;19141;48.980;8.410;2022-11-15T13:24:55;99411.50;;;14.57;96.48
32789;BME280;19141;48.980;8.410;2022-11-15T13:27:21;99407.78;;;14.58;95.86
32789;BME280;19141;48.980;8.410;2022-11-15T13:29:47;99409.00;;;14.62;95.29
32789;BME280;19141;48.980;8.410;2022-11-15T13:32:15;99399.97;;;14.56;95.57
32789;BME280;19141;48.980;8.410;2022-11-15T13:34:48;99399.31;;;14.61;95.37
32789;BME280;19141;48.980;8.410;2022-11-15T13:39:45;99394.03;;;14.54;94.95
32789;BME280;19141;48.980;8.410;2022-11-15T13:42:15;99393.41;;;14.52;96.09
32789;BME280;19141;48.980;8.410;2022-11-15T13:44:55;99383.22;;;14.36;95.27
32789;BME280;19141;48.980;8.410;2022-11-15T13:47:21;99385.84;;;14.43;95.63
32789;BME280;19141;48.980;8.410;2022-11-15T13:49:46;99380.72;;;14.41;95.19
32789;BME280;19141;48.980;8.410;2022-11-15T13:52:15;99375.53;;;14.39;94.78
32789;BME280;19141;48.980;8.410;2022-11-15T13:54:50;99371.47;;;14.37;94.70
32789;BME280;19141;48.980;8.410;2022-11-15T13:57:23;99375.81;;;14.31;94.72
32789;BME280;19141;48.980;8.410;2022-11-15T14:00:00;99360.63;;;14.25;94.02
32789;BME280;19141;48.980;8.410;2022-11-15T14:02:31;99355.16;;;14.13;94.23
32789;BME280;19141;48.980;8.410;2022-11-15T14:04:58;99361.56;;;14.12;95.14
32789;BME280;19141;48.980;8.410;2022-11-15T14:07:27;99343.91;;;14.05;95.57
32789;BME280;19141;48.980;8.410;2022-11-15T14:09:55;99341.66;;;14.02;95.91
32789;BME280;19141;48.980;8.410;2022-11-15T14:12:30;99318.59;;;14.01;95.64
32789;BME280;19141;48.980;8.410;2022-11-15T14:14:58;99313.69;;;13.98;96.47
32789;BME280;19141;48.980;8.410;2022-11-15T14:19:56;99321.97;;;13.90;97.93
32789;BME280;19141;48.980;8.410;2022-11-15T14:22:26;99317.63;;;13.89;98.21
32789;BME280;19141;48.980;8.410;2022-11-15T14:25:28;99308.66;;;13.83;99.26
32789;BME280;19141;48.980;8.410;2022-11-15T14:30:44;99303.06;;;13.84;98.84
32789;BME280;19141;48.980;8.410;2022-11-15T14:33:32;99305.75;;;13.84;99.25
32789;BME280;19141;48.980;8.410;2022-11-15T14:36:05;99298.75;;;13.83;99.11
32789;BME280;19141;48.980;8.410;2022-11-15T14:38:31;99297.94;;;13.83;99.34
32789;BME280;19141;48.980;8.410;2022-11-15T14:40:56;99293.59;;;13.82;98.58
32789;BME280;19141;48.980;8.410;2022-11-15T14:43:22;99299.88;;;13.69;98.15
32789;BME280;19141;48.980;8.410;2022-11-15T14:45:47;99293.03;;;13.73;99.71
32789;BME280;19141;48.980;8.410;2022-11-15T14:48:13;99286.50;;;13.69;100.00
32789;BME280;19141;48.980;8.410;2022-11-15T14:50:39;99284.53;;;13.58;100.00
32789;BME280;19141;48.980;8.410;2022-11-15T14:53:04;99286.75;;;13.61;100.00
32789;BME280;19141;48.980;8.410;2022-11-15T14:55:33;99276.28;;;13.60;100.00
32789;BME280;19141;48.980;8.410;2022-11-15T14:58:05;99259.66;;;13.51;100.00
32789;BME280;19141;48.980;8.410;2022-11-15T15:00:34;99268.88;;;13.55;100.00
32789;BME280;19141;48.980;8.410;2022-11-15T15:02:59;99257.19;;;13.49;100.00
32789;BME280;19141;48.980;8.410;2022-11-15T15:05:31;99257.84;;;13.45;100.00
32789;BME280;19141;48.980;8.410;2022-11-15T15:07:57;99249.59;;;13.46;100.00
32789;BME280;19141;48.980;8.410;2022-11-15T15:10:31;99247.75;;;13.47;100.00
32789;BME280;19141;48.980;8.410;2022-11-15T15:12:57;99246.47;;;13.49;100.00
32789;BME280;19141;48.980;8.410;2022-11-15T15:15:31;99243.00;;;13.49;100.00
32789;BME280;19141;48.980;8.410;2022-11-15T15:17:57;99244.84;;;13.48;100.00
32789;BME280;19141;48.980;8.410;2022-11-15T15:20:22;99240.53;;;13.47;100.00
32789;BME280;19141;48.980;8.410;2022-11-15T15:22:48;99230.47;;;13.43;100.00
32789;BME280;19141;48.980;8.410;2022-11-15T15:25:28;99226.56;;;13.45;100.00
32789;BME280;19141;48.980;8.410;2022-11-15T15:27:54;99223.66;;;13.47;100.00
32789;BME280;19141;48.980;8.410;2022-11-15T15:30:21;99223.66;;;13.47;100.00
32789;BME280;19141;48.980;8.410;2022-11-15T15:32:47;99226.56;;;13.45;100.00
32789;BME280;19141;48.980;8.410;2022-11-15T15:35:14;99213.00;;;13.40;100.00
32789;BME280;19141;48.980;8.410;2022-11-15T15:37:41;99212.41;;;13.38;100.00
32789;BME280;19141;48.980;8.410;2022-11-15T15:40:21;99211.38;;;13.39;100.00
32789;BME280;19141;48.980;8.410;2022-11-15T15:42:48;99210.38;;;13.34;100.00
32789;BME280;19141;48.980;8.410;2022-11-15T15:45:15;99199.91;;;13.32;100.00
32789;BME280;19141;48.980;8.410;2022-11-15T15:47:41;99198.47;;;13.29;100.00
32789;BME280;19141;48.980;8.410;2022-11-15T15:50:27;99198.91;;;13.26;100.00
32789;BME280;19141;48.980;8.410;2022-11-15T15:52:55;99201.41;;;13.21;100.00
32789;BME280;19141;48.980;8.410;2022-11-15T15:55:22;99196.47;;;13.18;100.00
32789;BME280;19141;48.980;8.410;2022-11-15T15:57:47;99190.94;;;13.13;100.00
32789;BME280;19141;48.980;8.410;2022-11-15T16:00:13;99189.13;;;13.07;100.00
32789;BME280;19141;48.980;8.410;2022-11-15T16:02:39;99177.44;;;13.01;100.00
32789;BME280;19141;48.980;8.410;2022-11-15T16:05:06;99183.22;;;12.98;100.00
32789;BME280;19141;48.980;8.410;2022-11-15T16:07:31;99173.47;;;12.79;100.00
32789;BME280;19141;48.980;8.410;2022-11-15T16:09:57;99177.13;;;12.85;100.00
32789;BME280;19141;48.980;8.410;2022-11-15T16:12:28;99179.41;;;12.81;100.00
32789;BME280;19141;48.980;8.410;2022-11-15T16:14:54;99172.00;;;12.76;100.00
32789;BME280;19141;48.980;8.410;2022-11-15T16:17:21;99170.38;;;12.75;100.00
32789;BME280;19141;48.980;8.410;2022-11-15T16:19:48;99168.16;;;12.72;100.00
32789;BME280;19141;48.980;8.410;2022-11-15T16:22:13;99156.69;;;12.65;100.00
32789;BME280;19141;48.980;8.410;2022-11-15T16:24:38;99153.16;;;12.65;100.00
32789;BME280;19141;48.980;8.410;2022-11-15T16:27:04;99153.38;;;12.63;100.00
32789;BME280;19141;48.980;8.410;2022-11-15T16:29:29;99144.16;;;12.59;100.00
32789;BME280;19141;48.980;8.410;2022-11-15T16:31:55;99140.91;;;12.50;100.00
32789;BME280;19141;48.980;8.410;2022-11-15T16:34:21;99146.66;;;12.54;100.00
32789;BME280;19141;48.980;8.410;2022-11-15T16:36:47;99139.03;;;12.51;100.00
32789;BME280;19141;48.980;8.410;2022-11-15T16:39:12;99135.38;;;12.52;100.00
32789;BME280;19141;48.980;8.410;2022-11-15T16:41:39;99129.84;;;12.47;100.00
32789;BME280;19141;48.980;8.410;2022-11-15T16:44:05;99134.78;;;12.43;100.00
32789;BME280;19141;48.980;8.410;2022-11-15T16:46:30;99128.00;;;12.41;100.00
32789;BME280;19141;48.980;8.410;2022-11-15T16:48:56;99129.88;;;12.40;100.00
32789;BME280;19141;48.980;8.410;2022-11-15T16:51:22;99123.72;;;12.40;100.00
32789;BME280;19141;48.980;8.410;2022-11-15T16:53:48;99117.56;;;12.39;100.00
32789;BME280;19141;48.980;8.410;2022-11-15T16:58:43;99129.63;;;12.48;100.00
32789;BME280;19141;48.980;8.410;2022-11-15T17:01:15;99119.97;;;12.47;100.00
32789;BME280;19141;48.980;8.410;2022-11-15T17:03:41;99130.19;;;12.57;100.00
32789;BME280;19141;48.980;8.410;2022-11-15T17:06:08;99121.75;;;12.60;100.00
32789;BME280;19141;48.980;8.410;2022-11-15T17:08:34;99119.66;;;12.69;100.00
32789;BME280;19141;48.980;8.410;2022-11-15T17:10:59;99115.13;;;12.69;100.00
32789;BME280;19141;48.980;8.410;2022-11-15T17:13:25;99111.41;;;12.70;100.00
32789;BME280;19141;48.980;8.410;2022-11-15T17:16:02;99109.09;;;12.81;95.98
32789;BME280;19141;48.980;8.410;2022-11-15T17:18:27;99108.66;;;12.84;98.11
32789;BME280;19141;48.980;8.410;2022-11-15T17:20:53;99106.63;;;12.86;95.62
32789;BME280;19141;48.980;8.410;2022-11-15T17:23:18;99105.72;;;12.98;93.70
32789;BME280;19141;48.980;8.410;2022-11-15T17:25:44;99102.22;;;12.98;94.76
32789;BME280;19141;48.980;8.410;2022-11-15T17:28:09;99098.69;;;13.04;92.26
32789;BME280;19141;48.980;8.410;2022-11-15T17:30:35;99102.31;;;13.10;91.45
32789;BME280;19141;48.980;8.410;2022-11-15T17:33:00;99095.75;;;13.12;90.89
32789;BME280;19141;48.980;8.410;2022-11-15T17:35:25;99101.44;;;13.16;91.14
32789;BME280;19141;48.980;8.410;2022-11-15T17:37:51;99096.09;;;13.16;92.43
32789;BME280;19141;48.980;8.410;2022-11-15T17:40:17;99089.56;;;13.12;93.66
32789;BME280;19141;48.980;8.410;2022-11-15T17:42:43;99095.50;;;13.14;90.48
32789;BME280;19141;48.980;8.410;2022-11-15T17:45:09;99090.00;;;13.09;92.34
32789;BME280;19141;48.980;8.410;2022-11-15T17:47:35;99096.38;;;13.08;95.42
32789;BME280;19141;48.980;8.410;2022-11-15T17:50:01;99092.94;;;13.00;99.31
32789;BME280;19141;48.980;8.410;2022-11-15T17:52:26;99094.84;;;12.93;100.00
32789;BME280;19141;48.980;8.410;2022-11-15T17:54:51;99102.91;;;12.87;100.00
32789;BME280;19141;48.980;8.410;2022-11-15T17:57:17;99095.56;;;12.75;100.00
32789;BME280;19141;48.980;8.410;2022-11-15T17:59:42;99096.19;;;12.71;100.00
32789;BME280;19141;48.980;8.410;2022-11-15T18:02:08;99087.00;;;12.67;100.00
32789;BME280;19141;48.980;8.410;2022-11-15T18:04:34;99093.78;;;12.63;100.00
32789;BME280;19141;48.980;8.410;2022-11-15T18:06:59;99088.31;;;12.51;100.00
32789;BME280;19141;48.980;8.410;2022-11-15T18:09:25;99098.97;;;12.51;100.00
32789;BME280;19141;48.980;8.410;2022-11-15T18:11:51;99102.72;;;12.43;100.00
32789;BME280;19141;48.980;8.410;2022-11-15T18:14:18;99104.00;;;12.34;100.00
32789;BME280;19141;48.980;8.410;2022-11-15T18:16:44;99115.31;;;12.30;100.00
32789;BME280;19141;48.980;8.410;2022-11-15T18:19:09;99111.25;;;12.20;100.00
32789;BME280;19141;48.980;8.410;2022-11-15T18:21:39;99113.28;;;12.18;100.00
32789;BME280;19141;48.980;8.410;2022-11-15T18:24:25;99111.06;;;12.15;100.00
32789;BME280;19141;48.980;8.410;2022-11-15T18:26:51;99108.78;;;12.12;100.00
32789;BME280;19141;48.980;8.410;2022-11-15T18:29:17;99097.53;;;12.10;100.00
32789;BME280;19141;48.980;8.410;2022-11-15T18:31:44;99096.31;;;12.06;100.00
32789;BME280;19141;48.980;8.410;2022-11-15T18:34:09;99102.47;;;12.07;100.00
32789;BME280;19141;48.980;8.410;2022-11-15T18:36:35;99099.00;;;12.06;100.00
32789;BME280;19141;48.980;8.410;2022-11-15T18:39:02;99108.00;;;12.05;100.00
32789;BME280;19141;48.980;8.410;2022-11-15T18:41:28;99096.50;;;12.05;100.00
32789;BME280;19141;48.980;8.410;2022-11-15T18:44:00;99093.66;;;12.06;100.00
32789;BME280;19141;48.980;8.410;2022-11-15T18:46:28;99080.72;;;12.03;100.00
32789;BME280;19141;48.980;8.410;2022-11-15T18:48:54;99086.06;;;12.03;100.00
32789;BME280;19141;48.980;8.410;2022-11-15T18:51:22;99074.78;;;12.01;100.00
32789;BME280;19141;48.980;8.410;2022-11-15T18:53:50;99079.47;;;11.99;100.00
32789;BME280;19141;48.980;8.410;2022-11-15T18:56:18;99071.47;;;11.99;100.00
32789;BME280;19141;48.980;8.410;2022-11-15T18:58:49;99065.97;;;11.94;100.00
32789;BME280;19141;48.980;8.410;2022-11-15T19:01:21;99073.34;;;11.92;100.00
32789;BME280;19141;48.980;8.410;2022-11-15T19:03:49;99057.78;;;11.89;100.00
32789;BME280;19141;48.980;8.410;2022-11-15T19:06:18;99063.31;;;11.87;100.00
32789;BME280;19141;48.980;8.410;2022-11-15T19:08:45;99059.22;;;11.85;100.00
32789;BME280;19141;48.980;8.410;2022-11-15T19:11:13;99060.03;;;11.85;100.00
32789;BME280;19141;48.980;8.410;2022-11-15T19:13:39;99061.88;;;11.85;100.00
32789;BME280;19141;48.980;8.410;2022-11-15T19:16:05;99053.88;;;11.85;100.00
32789;BME280;19141;48.980;8.410;2022-11-15T19:18:32;99055.34;;;11.81;100.00
32789;BME280;19141;48.980;8.410;2022-11-15T19:21:05;99063.13;;;11.82;100.00
32789;BME280;19141;48.980;8.410;2022-11-15T19:23:35;99072.16;;;11.75;100.00
32789;BME280;19141;48.980;8.410;2022-11-15T19:26:02;99071.72;;;11.78;100.00
32789;BME280;19141;48.980;8.410;2022-11-15T19:28:28;99066.16;;;11.79;100.00
32789;BME280;19141;48.980;8.410;2022-11-15T19:31:02;99054.91;;;11.77;100.00
32789;BME280;19141;48.980;8.410;2022-11-15T19:33:27;99055.72;;;11.78;100.00
32789;BME280;19141;48.980;8.410;2022-11-15T19:36:02;99053.06;;;11.71;100.00
32789;BME280;19141;48.980;8.410;2022-11-15T19:38:32;99053.28;;;11.69;100.00
32789;BME280;19141;48.980;8.410;2022-11-15T19:41:03;99050.00;;;11.74;100.00
32789;BME280;19141;48.980;8.410;2022-11-15T19:43:29;99045.47;;;11.75;100.00
32789;BME280;19141;48.980;8.410;2022-11-15T19:45:57;99040.34;;;11.73;100.00